EFMA

Details ICAO EFMA (MHQ)
Name Mariehamn
Region Finland
Timezone Europe/Mariehamn (UTC+3.0)
Plans Departing 32
Arriving 54
Stats Elevation 17 ft / 5 m (AMSL)
Location 60.122203° 19.898157°
Runways 1
Magnetic Variation 7.026° E
Sunrise 2018-05-23 01:46:01 UTC / 2018-05-23 04:46:01 Local
Sunset 2018-05-23 19:31:09 UTC / 2018-05-23 22:31:09 Local
Advertisement - Login to hide

Runways

ID Width Length Bearing (true) Bearing (mag) Surface Threshold Offset Overrun Length
03 197 ft / 60 m 6,231 ft / 1,899 m 23.33° 16.30° Asphalt 0 ft / 0 m 161 ft / 49 m
21 197 ft / 60 m 6,231 ft / 1,899 m 203.35° 196.32° Asphalt 0 ft / 0 m 150 ft / 46 m

Approach Navaids

Runway Type Ident Frequency Range Bearing (true) Bearing (mag) Slope Elevation
21 Localiser MA 110.90 MHz 18 nm / 33 km 203.34° 196.31° - 17 ft / 5 m (AMSL)
21 Glidescope MA 110.90 MHz 10 nm / 19 km 203.34° 196.31° 3.50° 17 ft / 5 m (AMSL)

Map

Weather


0- 5 10 15 20 25 30 35+ Temperature / ° C

Clouds and Precipitation
Forecast for 2018-05-23 12:00 UTC. Updated 14 minutes ago

Ground ~20,000 ft ~40,000 ft Winds

METAR

EFMA 231120Z 34013KT CAVOK 17/08 Q1023

TAF

Not found

Frequencies

Tower 119.70 MHz TWR
Tower 119.60 MHz TWR
Warning: Do not use this data for real-world aviation or navigation. No guarantee of current accuracy is given.